createdAt,value
2022-12-01T00:01:23.390Z,4.95
2022-12-01T00:03:50.513Z,4.97
2022-12-01T00:06:20.977Z,4.96
2022-12-01T00:09:11.447Z,4.99
2022-12-01T00:11:40.174Z,4.99
2022-12-01T00:14:07.342Z,5.02
2022-12-01T00:16:35.198Z,5.02
2022-12-01T00:19:02.726Z,5.03
2022-12-01T00:21:29.794Z,5.03
2022-12-01T00:23:58.152Z,5.05
2022-12-01T00:26:27.356Z,5.08
2022-12-01T00:28:57.689Z,5.11
2022-12-01T00:31:25.361Z,5.09
2022-12-01T00:33:53.122Z,5.10
2022-12-01T00:36:21.587Z,5.11
2022-12-01T00:38:52.583Z,5.11
2022-12-01T00:41:20.851Z,5.10
2022-12-01T00:43:47.996Z,5.10
2022-12-01T00:46:15.254Z,5.14
2022-12-01T00:48:42.325Z,5.14
2022-12-01T00:51:09.620Z,5.13
2022-12-01T00:53:36.694Z,5.14
2022-12-01T00:56:04.283Z,5.16
2022-12-01T00:58:31.387Z,5.18
2022-12-01T01:01:02.905Z,5.18
2022-12-01T01:03:32.047Z,5.19
2022-12-01T01:06:07.090Z,5.22
2022-12-01T01:08:34.359Z,5.21
2022-12-01T01:11:01.854Z,5.21
2022-12-01T01:13:29.309Z,5.21
2022-12-01T01:16:22.825Z,5.23
2022-12-01T01:18:50.324Z,5.25
2022-12-01T01:21:21.045Z,5.24
2022-12-01T01:23:49.907Z,5.23
2022-12-01T01:26:19.494Z,5.26
2022-12-01T01:28:48.181Z,5.22
2022-12-01T01:31:20.677Z,5.24
2022-12-01T01:33:48.713Z,5.25
2022-12-01T01:36:17.568Z,5.23
2022-12-01T01:38:45.429Z,5.27
2022-12-01T01:41:13.025Z,5.26
2022-12-01T01:43:55.492Z,5.26
2022-12-01T01:46:31.396Z,5.29
2022-12-01T01:49:12.207Z,5.30
2022-12-01T01:51:50.594Z,5.28
2022-12-01T01:54:36.225Z,5.29
2022-12-01T01:57:07.753Z,5.31
2022-12-01T01:59:43.866Z,5.31
2022-12-01T02:02:13.173Z,5.30
2022-12-01T02:04:46.202Z,5.31
2022-12-01T02:07:17.980Z,5.33
2022-12-01T02:09:46.002Z,5.34
2022-12-01T02:12:42.846Z,5.32
2022-12-01T02:15:33.517Z,5.33
2022-12-01T02:18:07.158Z,5.32
2022-12-01T02:21:03.663Z,5.32
2022-12-01T02:23:59.963Z,5.31
2022-12-01T02:27:08.465Z,5.31
2022-12-01T02:30:14.882Z,5.32
2022-12-01T02:33:14.128Z,5.34
2022-12-01T02:36:12.919Z,5.30
2022-12-01T02:39:17.745Z,5.32
2022-12-01T02:41:52.651Z,5.29
2022-12-01T02:44:35.168Z,5.31
2022-12-01T02:47:12.879Z,5.31
2022-12-01T02:49:51.745Z,5.34
2022-12-01T02:52:20.498Z,5.30
2022-12-01T02:54:48.600Z,5.31
2022-12-01T02:57:17.180Z,5.31
2022-12-01T02:59:51.567Z,5.25
2022-12-01T03:02:24.655Z,5.31
2022-12-01T03:04:53.514Z,5.31
2022-12-01T03:07:51.944Z,5.32
2022-12-01T03:10:53.533Z,5.29
2022-12-01T03:13:53.839Z,5.29
2022-12-01T03:16:31.064Z,5.30
2022-12-01T03:19:14.404Z,5.28
2022-12-01T03:22:08.591Z,5.30
2022-12-01T03:24:37.002Z,5.32
2022-12-01T03:27:05.806Z,5.31
2022-12-01T03:29:43.135Z,5.28
2022-12-01T03:32:26.080Z,5.30
2022-12-01T03:35:21.414Z,5.30
2022-12-01T03:37:56.067Z,5.29
2022-12-01T03:40:27.217Z,5.28
2022-12-01T03:43:00.178Z,5.30
2022-12-01T03:45:39.948Z,5.29
2022-12-01T03:48:07.917Z,5.29
2022-12-01T03:50:56.799Z,5.25
2022-12-01T03:53:28.573Z,5.26
2022-12-01T03:56:05.832Z,5.27
2022-12-01T03:58:43.065Z,5.26
2022-12-01T04:01:10.418Z,5.25
2022-12-01T04:03:37.519Z,5.22
2022-12-01T04:06:05.155Z,5.24
2022-12-01T04:08:33.699Z,5.18
2022-12-01T04:11:00.750Z,5.19
2022-12-01T04:13:27.835Z,5.16
2022-12-01T04:15:55.891Z,5.18
2022-12-01T04:18:23.050Z,5.18
2022-12-01T04:20:50.921Z,5.14
2022-12-01T04:23:36.560Z,5.12
2022-12-01T04:26:05.729Z,5.13
2022-12-01T04:28:32.773Z,5.14
2022-12-01T04:30:59.950Z,5.11
2022-12-01T04:33:27.094Z,5.14
2022-12-01T04:35:59.380Z,5.10
2022-12-01T04:38:30.786Z,5.11
2022-12-01T04:40:58.317Z,5.12
2022-12-01T04:43:25.469Z,5.09
2022-12-01T04:45:52.515Z,5.08
2022-12-01T04:48:19.542Z,5.09
2022-12-01T04:50:49.729Z,5.08
2022-12-01T04:53:16.796Z,5.10
2022-12-01T04:55:43.899Z,5.07
2022-12-01T04:58:11.018Z,5.11
2022-12-01T05:00:38.225Z,5.10
2022-12-01T05:03:07.657Z,5.07
2022-12-01T05:05:36.694Z,5.13
2022-12-01T05:08:04.153Z,5.12
2022-12-01T05:10:31.434Z,5.07
2022-12-01T05:12:58.692Z,5.06
2022-12-01T05:15:25.767Z,5.07
2022-12-01T05:17:52.798Z,5.08
2022-12-01T05:20:44.342Z,4.99
2022-12-01T05:23:16.533Z,4.97
2022-12-01T05:25:44.207Z,4.93
2022-12-01T05:28:11.478Z,4.90
2022-12-01T05:30:38.582Z,4.89
2022-12-01T05:33:05.702Z,4.88
2022-12-01T05:35:35.624Z,4.84
2022-12-01T05:38:07.607Z,4.82
2022-12-01T05:40:36.779Z,4.78
2022-12-01T05:43:04.392Z,4.79
2022-12-01T05:45:32.087Z,4.80
2022-12-01T05:48:00.903Z,4.80
2022-12-01T05:50:30.157Z,4.84
2022-12-01T05:52:57.461Z,4.83
2022-12-01T05:55:24.593Z,4.84
2022-12-01T05:57:51.732Z,4.86
2022-12-01T06:00:19.423Z,4.89
2022-12-01T06:02:46.550Z,4.89
2022-12-01T06:05:13.638Z,4.88
2022-12-01T06:07:40.880Z,4.80
2022-12-01T06:10:09.840Z,4.83
2022-12-01T06:12:37.732Z,4.78
2022-12-01T06:15:06.693Z,4.75
2022-12-01T06:17:39.779Z,4.70
2022-12-01T06:20:09.270Z,4.62
2022-12-01T06:22:36.316Z,4.55
2022-12-01T06:25:03.887Z,4.48
2022-12-01T06:27:30.982Z,4.39
2022-12-01T06:29:58.097Z,4.31
2022-12-01T06:32:25.191Z,4.28
2022-12-01T06:34:52.362Z,4.23
2022-12-01T06:37:19.414Z,4.16
2022-12-01T06:39:46.686Z,4.13
2022-12-01T06:42:13.943Z,4.08
2022-12-01T06:44:41.009Z,4.04
2022-12-01T06:47:08.157Z,3.99
2022-12-01T06:49:35.732Z,3.95
2022-12-01T06:52:02.915Z,3.91
2022-12-01T06:54:30.070Z,3.88
2022-12-01T06:56:58.413Z,3.83
2022-12-01T06:59:25.989Z,3.78
2022-12-01T07:01:53.492Z,3.74
2022-12-01T07:04:20.954Z,3.72
2022-12-01T07:06:48.031Z,3.70
2022-12-01T07:09:15.179Z,3.63
2022-12-01T07:11:42.358Z,3.64
2022-12-01T07:14:22.432Z,3.60
2022-12-01T07:16:49.613Z,3.58
2022-12-01T07:19:16.778Z,3.52
2022-12-01T07:21:43.896Z,3.49
2022-12-01T07:24:12.575Z,3.43
2022-12-01T07:26:41.068Z,3.40
2022-12-01T07:29:09.288Z,3.38
2022-12-01T07:31:37.558Z,3.35
2022-12-01T07:34:05.816Z,3.33
2022-12-01T07:36:33.006Z,3.34
2022-12-01T07:39:00.343Z,3.35
2022-12-01T07:41:27.439Z,3.34
2022-12-01T07:43:55.760Z,3.36
2022-12-01T07:46:26.947Z,3.37
2022-12-01T07:48:55.599Z,3.39
2022-12-01T07:51:24.712Z,3.42
2022-12-01T07:53:53.279Z,3.45
2022-12-01T07:56:27.137Z,3.48
2022-12-01T07:58:54.585Z,3.53
2022-12-01T08:01:24.646Z,3.60
2022-12-01T08:03:55.379Z,3.62
2022-12-01T08:06:23.984Z,3.68
2022-12-01T08:08:51.559Z,3.73
2022-12-01T08:11:29.370Z,3.79
2022-12-01T08:13:56.511Z,3.85
2022-12-01T08:16:25.018Z,3.89
2022-12-01T08:18:52.454Z,3.94
2022-12-01T08:21:22.093Z,4.00
2022-12-01T08:23:53.234Z,4.06
2022-12-01T08:26:21.149Z,4.12
2022-12-01T08:28:49.054Z,4.17
2022-12-01T08:31:30.121Z,4.23
2022-12-01T08:33:58.146Z,4.27
2022-12-01T08:36:26.083Z,4.33
2022-12-01T08:38:55.578Z,4.38
2022-12-01T08:41:24.576Z,4.44
2022-12-01T08:44:00.104Z,4.47
2022-12-01T08:46:33.130Z,4.52
2022-12-01T08:49:01.273Z,4.57
2022-12-01T08:51:28.778Z,4.60
2022-12-01T08:53:57.921Z,4.66
2022-12-01T08:56:34.876Z,4.69
2022-12-01T08:59:02.330Z,4.72
2022-12-01T09:01:29.874Z,4.76
2022-12-01T09:04:08.784Z,4.80
2022-12-01T09:06:42.737Z,4.83
2022-12-01T09:09:13.134Z,4.89
2022-12-01T09:11:41.236Z,4.90
2022-12-01T09:14:08.340Z,4.96
2022-12-01T09:16:35.487Z,5.01
2022-12-01T09:19:03.292Z,5.08
2022-12-01T09:21:32.619Z,5.17
2022-12-01T09:24:01.353Z,5.23
2022-12-01T09:26:29.043Z,5.30
2022-12-01T09:29:00.654Z,5.39
2022-12-01T09:31:28.018Z,5.44
2022-12-01T09:33:57.720Z,5.59
2022-12-01T09:36:25.354Z,5.76
2022-12-01T09:38:52.731Z,5.96
2022-12-01T09:41:53.526Z,6.20
2022-12-01T09:44:42.714Z,6.40
2022-12-01T09:47:20.229Z,6.49
2022-12-01T09:49:56.702Z,6.51
2022-12-01T09:52:26.584Z,6.67
2022-12-01T09:54:55.844Z,6.69
2022-12-01T09:57:38.362Z,6.74
2022-12-01T10:00:20.210Z,6.99
2022-12-01T10:03:02.939Z,7.14
2022-12-01T10:06:18.047Z,7.20
2022-12-01T10:08:37.427Z,7.33
2022-12-01T10:11:31.615Z,7.51
2022-12-01T10:13:59.963Z,7.80
2022-12-01T10:16:49.206Z,7.82
2022-12-01T10:19:29.390Z,7.77
2022-12-01T10:22:18.340Z,7.60
2022-12-01T10:25:07.107Z,7.48
2022-12-01T10:27:49.229Z,7.24
2022-12-01T10:30:20.087Z,7.12
2022-12-01T10:33:17.762Z,7.33
2022-12-01T10:35:44.904Z,7.22
2022-12-01T10:38:24.410Z,7.03
2022-12-01T10:40:53.350Z,7.07
2022-12-01T10:43:39.918Z,7.10
2022-12-01T10:46:16.042Z,6.99
2022-12-01T10:48:58.827Z,7.00
2022-12-01T10:51:27.881Z,7.02
2022-12-01T10:54:11.544Z,6.97
2022-12-01T10:56:41.817Z,7.06
2022-12-01T10:59:23.711Z,7.20
2022-12-01T11:01:51.124Z,7.33
2022-12-01T11:04:46.511Z,7.25
2022-12-01T11:07:25.925Z,7.40
2022-12-01T11:10:36.689Z,7.43
2022-12-01T11:13:21.238Z,7.40
2022-12-01T11:16:01.690Z,7.50
2022-12-01T11:18:33.434Z,7.32
2022-12-01T11:21:26.349Z,7.61
2022-12-01T11:23:56.043Z,7.45
2022-12-01T11:26:32.521Z,7.58
2022-12-01T11:29:05.048Z,7.50
2022-12-01T11:31:43.923Z,7.31
2022-12-01T11:34:31.479Z,7.32
2022-12-01T11:37:06.831Z,7.20
2022-12-01T11:39:41.439Z,7.06
2022-12-01T11:42:14.478Z,6.97
2022-12-01T11:44:52.513Z,7.02
2022-12-01T11:47:24.796Z,7.09
2022-12-01T11:49:59.815Z,7.12
2022-12-01T11:52:36.902Z,7.15
2022-12-01T11:55:23.935Z,7.24
2022-12-01T11:57:54.996Z,7.33
2022-12-01T12:00:26.792Z,7.44
2022-12-01T12:03:26.424Z,7.28
2022-12-01T12:09:44.910Z,7.28
2022-12-01T12:12:55.731Z,7.16
2022-12-01T12:15:58.241Z,7.11
2022-12-01T12:19:33.819Z,7.15
2022-12-01T12:22:27.828Z,7.03
2022-12-01T12:25:41.751Z,6.94
2022-12-01T12:29:09.366Z,6.88
2022-12-01T12:31:59.399Z,6.87
2022-12-01T12:34:51.067Z,6.88
2022-12-01T12:37:42.282Z,6.92
2022-12-01T12:40:54.173Z,6.97
2022-12-01T12:43:51.038Z,6.95
2022-12-01T12:46:55.574Z,6.93
2022-12-01T12:49:54.105Z,6.89
2022-12-01T12:52:33.128Z,6.87
2022-12-01T12:55:12.276Z,6.89
2022-12-01T12:57:52.340Z,6.93
2022-12-01T13:00:25.535Z,6.88
2022-12-01T13:03:34.516Z,6.87
2022-12-01T13:06:12.093Z,6.89
2022-12-01T13:08:48.984Z,6.85
2022-12-01T13:11:32.995Z,6.84
2022-12-01T13:14:24.522Z,6.80
2022-12-01T13:16:58.138Z,6.74
2022-12-01T13:19:36.542Z,6.72
2022-12-01T13:22:07.245Z,6.73
2022-12-01T13:24:34.656Z,6.74
2022-12-01T13:27:11.989Z,6.75
2022-12-01T13:29:46.678Z,6.71
2022-12-01T13:32:37.519Z,6.67
2022-12-01T13:35:21.102Z,6.65
2022-12-01T13:37:48.538Z,6.56
2022-12-01T13:40:31.581Z,6.54
2022-12-01T13:43:10.260Z,6.54
2022-12-01T13:45:40.643Z,6.54
2022-12-01T13:48:46.589Z,6.48
2022-12-01T13:51:13.746Z,6.45
2022-12-01T13:53:57.738Z,6.45
2022-12-01T13:56:39.722Z,6.41
2022-12-01T14:00:23.866Z,6.37
2022-12-01T14:03:12.868Z,6.29
2022-12-01T14:05:39.919Z,6.26
2022-12-01T14:08:46.223Z,6.23
2022-12-01T14:11:23.903Z,6.18
2022-12-01T14:13:57.213Z,6.13
2022-12-01T14:16:25.184Z,6.13
2022-12-01T14:18:57.109Z,6.16
2022-12-01T14:21:47.663Z,6.18
2022-12-01T14:24:35.327Z,6.14
2022-12-01T14:27:04.678Z,6.07
2022-12-01T14:29:42.999Z,6.06
2022-12-01T14:32:21.806Z,6.03
2022-12-01T14:34:52.755Z,5.98
2022-12-01T14:37:25.061Z,5.95
2022-12-01T14:40:13.794Z,5.91
2022-12-01T14:43:03.286Z,5.86
2022-12-01T14:45:50.848Z,5.85
2022-12-01T14:48:27.005Z,5.81
2022-12-01T14:51:26.514Z,5.81
2022-12-01T14:53:56.244Z,5.75
2022-12-01T14:56:25.297Z,5.73
2022-12-01T14:58:59.806Z,5.71
2022-12-01T15:01:35.172Z,5.67
2022-12-01T15:04:05.330Z,5.64
2022-12-01T15:06:35.448Z,5.58
2022-12-01T15:09:35.373Z,5.54
2022-12-01T15:12:09.229Z,5.51
2022-12-01T15:14:49.746Z,5.47
2022-12-01T15:17:30.310Z,5.45
2022-12-01T15:19:58.064Z,5.41
2022-12-01T15:22:31.383Z,5.37
2022-12-01T15:25:35.111Z,5.35
2022-12-01T15:28:19.284Z,5.29
2022-12-01T15:30:51.825Z,5.25
2022-12-01T15:33:35.426Z,5.22
2022-12-01T15:36:05.495Z,5.13
2022-12-01T15:38:36.051Z,5.11
2022-12-01T15:43:58.917Z,5.01
2022-12-01T15:46:34.679Z,4.96
2022-12-01T15:49:16.519Z,4.90
2022-12-01T15:51:44.566Z,4.84
2022-12-01T15:54:24.781Z,4.78
2022-12-01T15:56:55.624Z,4.72
2022-12-01T15:59:40.903Z,4.68
2022-12-01T16:02:28.532Z,4.61
2022-12-01T16:05:16.347Z,4.56
2022-12-01T16:08:11.955Z,4.50
2022-12-01T16:10:37.234Z,4.44
2022-12-01T16:14:00.036Z,4.36
2022-12-01T16:16:41.778Z,4.32
2022-12-01T16:19:08.830Z,4.26
2022-12-01T16:21:53.926Z,4.23
2022-12-01T16:24:35.841Z,4.15
2022-12-01T16:27:07.886Z,4.11
2022-12-01T16:30:18.685Z,4.05
2022-12-01T16:32:45.842Z,4.00
2022-12-01T16:35:31.340Z,3.98
2022-12-01T16:37:59.621Z,4.01
2022-12-01T16:40:27.369Z,3.99
2022-12-01T16:42:54.422Z,4.00
2022-12-01T16:45:21.558Z,4.01
2022-12-01T16:47:49.548Z,4.01
2022-12-01T16:50:20.083Z,3.97
2022-12-01T16:52:47.834Z,3.93
2022-12-01T16:55:30.721Z,3.89
2022-12-01T16:57:57.845Z,3.87
2022-12-01T17:00:25.724Z,3.80
2022-12-01T17:02:53.105Z,3.76
2022-12-01T17:05:20.566Z,3.71
2022-12-01T17:07:48.327Z,3.68
2022-12-01T17:10:16.032Z,3.65
2022-12-01T17:12:43.338Z,3.60
2022-12-01T17:15:11.525Z,3.58
2022-12-01T17:17:38.624Z,3.52
2022-12-01T17:20:07.855Z,3.50
2022-12-01T17:22:35.206Z,3.44
2022-12-01T17:25:02.472Z,3.42
2022-12-01T17:27:31.493Z,3.39
2022-12-01T17:29:59.258Z,3.35
2022-12-01T17:32:27.751Z,3.31
2022-12-01T17:34:55.054Z,3.27
2022-12-01T17:37:22.144Z,3.25
2022-12-01T17:39:50.299Z,3.21
2022-12-01T17:42:17.410Z,3.18
2022-12-01T17:44:44.581Z,3.14
2022-12-01T17:47:12.584Z,3.11
2022-12-01T17:49:39.741Z,3.09
2022-12-01T17:52:08.152Z,3.08
2022-12-01T17:54:35.260Z,3.05
2022-12-01T17:57:02.376Z,3.03
2022-12-01T17:59:29.496Z,3.00
2022-12-01T18:01:56.624Z,2.98
2022-12-01T18:04:23.756Z,2.94
2022-12-01T18:06:54.242Z,2.92
2022-12-01T18:09:22.344Z,2.88
2022-12-01T18:11:49.744Z,2.85
2022-12-01T18:14:17.728Z,2.85
2022-12-01T18:16:45.807Z,2.82
2022-12-01T18:19:13.182Z,2.81
2022-12-01T18:21:40.836Z,2.78
2022-12-01T18:24:09.214Z,2.77
2022-12-01T18:26:39.842Z,2.78
2022-12-01T18:29:25.692Z,2.73
2022-12-01T18:31:57.017Z,2.76
2022-12-01T18:34:24.556Z,2.77
2022-12-01T18:36:51.733Z,2.77
2022-12-01T18:39:19.140Z,2.75
2022-12-01T18:41:46.318Z,2.76
2022-12-01T18:44:13.542Z,2.75
2022-12-01T18:46:41.214Z,2.77
2022-12-01T18:49:09.101Z,2.76
2022-12-01T18:51:37.763Z,2.73
2022-12-01T18:54:06.857Z,2.74
2022-12-01T18:56:34.402Z,2.75
2022-12-01T18:59:06.760Z,2.74
2022-12-01T19:01:41.216Z,2.73
2022-12-01T19:04:09.653Z,2.73
2022-12-01T19:06:38.827Z,2.73
2022-12-01T19:09:09.299Z,2.74
2022-12-01T19:11:36.932Z,2.75
2022-12-01T19:14:04.200Z,2.78
2022-12-01T19:16:31.490Z,2.85
2022-12-01T19:19:00.092Z,2.86
2022-12-01T19:21:27.162Z,2.93
2022-12-01T19:23:54.219Z,2.97
2022-12-01T19:26:22.950Z,3.03
2022-12-01T19:28:50.504Z,3.06
2022-12-01T19:31:24.749Z,3.12
2022-12-01T19:33:53.822Z,3.16
2022-12-01T19:36:25.258Z,3.22
2022-12-01T19:38:53.022Z,3.26
2022-12-01T19:41:25.125Z,3.32
2022-12-01T19:43:55.565Z,3.33
2022-12-01T19:46:26.993Z,3.38
2022-12-01T19:49:00.504Z,3.43
2022-12-01T19:51:35.477Z,3.46
2022-12-01T19:54:05.940Z,3.50
2022-12-01T19:56:33.549Z,3.52
2022-12-01T19:59:00.704Z,3.56
2022-12-01T20:01:28.349Z,3.58
2022-12-01T20:03:55.473Z,3.62
2022-12-01T20:06:29.689Z,3.65
2022-12-01T20:09:00.859Z,3.68
2022-12-01T20:11:29.875Z,3.70
2022-12-01T20:13:57.036Z,3.72
2022-12-01T20:16:26.659Z,3.75
2022-12-01T20:18:54.627Z,3.77
2022-12-01T20:21:26.051Z,3.79
2022-12-01T20:24:02.601Z,3.78
2022-12-01T20:26:38.367Z,3.81
2022-12-01T20:29:18.378Z,3.86
2022-12-01T20:31:46.360Z,3.88
2022-12-01T20:34:18.482Z,3.89
2022-12-01T20:36:45.893Z,3.90
2022-12-01T20:39:15.645Z,3.92
2022-12-01T20:41:44.902Z,3.95
2022-12-01T20:44:13.714Z,3.95
2022-12-01T20:46:40.981Z,3.95
2022-12-01T20:49:08.424Z,3.97
2022-12-01T20:51:35.570Z,4.00
2022-12-01T20:54:27.415Z,4.03
2022-12-01T20:56:52.108Z,4.03
2022-12-01T20:59:20.365Z,4.05
2022-12-01T21:01:47.571Z,4.07
2022-12-01T21:04:14.791Z,4.07
2022-12-01T21:06:42.216Z,4.08
2022-12-01T21:09:09.518Z,4.12
2022-12-01T21:12:08.025Z,4.12
2022-12-01T21:14:43.255Z,4.13
2022-12-01T21:17:34.513Z,4.15
2022-12-01T21:20:26.060Z,4.14
2022-12-01T21:22:54.516Z,4.17
2022-12-01T21:25:24.206Z,4.15
2022-12-01T21:27:52.311Z,4.19
2022-12-01T21:30:25.686Z,4.18
2022-12-01T21:32:54.282Z,4.19
2022-12-01T21:35:26.978Z,4.22
2022-12-01T21:38:01.901Z,4.21
2022-12-01T21:40:29.095Z,4.22
2022-12-01T21:43:09.640Z,4.24
2022-12-01T21:45:36.807Z,4.24
2022-12-01T21:48:17.879Z,4.25
2022-12-01T21:50:50.697Z,4.25
2022-12-01T21:53:20.975Z,4.24
2022-12-01T21:55:49.208Z,4.26
2022-12-01T21:58:34.818Z,4.25
2022-12-01T22:01:09.511Z,4.24
2022-12-01T22:03:44.781Z,4.28
2022-12-01T22:06:32.804Z,4.28
2022-12-01T22:09:29.719Z,4.31
2022-12-01T22:12:00.404Z,4.31
2022-12-01T22:14:35.602Z,4.33
2022-12-01T22:17:05.682Z,4.33
2022-12-01T22:19:39.675Z,4.32
2022-12-01T22:22:09.649Z,4.33
2022-12-01T22:25:00.118Z,4.34
2022-12-01T22:27:39.158Z,4.36
2022-12-01T22:30:06.189Z,4.38
2022-12-01T22:32:53.084Z,4.38
2022-12-01T22:35:26.156Z,4.39
2022-12-01T22:38:36.773Z,4.42
2022-12-01T22:41:12.378Z,4.43
2022-12-01T22:43:56.671Z,4.44
2022-12-01T22:46:25.452Z,4.45
2022-12-01T22:49:19.358Z,4.43
2022-12-01T22:52:01.222Z,4.45
2022-12-01T22:54:52.851Z,4.43
2022-12-01T22:57:34.824Z,4.44
2022-12-01T23:00:16.973Z,4.43
2022-12-01T23:02:44.508Z,4.44
2022-12-01T23:05:25.195Z,4.45
2022-12-01T23:07:54.503Z,4.40
2022-12-01T23:10:29.655Z,4.43
2022-12-01T23:13:09.542Z,4.42
2022-12-01T23:15:40.397Z,4.43
2022-12-01T23:18:44.658Z,4.40
2022-12-01T23:21:12.171Z,4.38
2022-12-01T23:23:39.311Z,4.40
2022-12-01T23:26:08.836Z,4.36
2022-12-01T23:28:39.036Z,4.38
2022-12-01T23:31:06.222Z,4.36
2022-12-01T23:33:35.078Z,4.35
2022-12-01T23:36:37.555Z,4.39
2022-12-01T23:39:12.122Z,4.34
2022-12-01T23:41:45.083Z,4.36
2022-12-01T23:44:30.905Z,4.32
2022-12-01T23:46:59.202Z,4.32
2022-12-01T23:49:31.164Z,4.33
2022-12-01T23:52:02.181Z,4.31
2022-12-01T23:54:34.726Z,4.30
2022-12-01T23:57:11.193Z,4.31
2022-12-01T23:59:38.952Z,4.31
